Tillman, South Carolina
Current Conditions -  °F | °C
As of 5:56 AM on Sunday 21 Dec 2014 (Local Time) from KNBC Reporting Station
Light Rain Light Rain  
Wind Chill: 43°   Ceiling: 6500
Heat Index: 48°   Visibility: 9mi
Dew Point: 45°   Wind: 10mph
Humidity: 89%   Direction: 10°N
Pressure: 30.2"   Gusts: NA
Location:  32.46°N, 81.11°W
Report Text: KNBC 211056Z AUTO 01009KT 9SM -RA FEW008 BKN065 OVC100 09/07 A3020 RMK AO2 RAB21E33B50 SLP225 P0000 T00890072 $
Loading
Personal Weather Stations






























Interactive Weather Map New forecast layout! Learn more

10-Day Weather Forecast

Advertisements
Track Severe Weather on mobile